sensor_id;sensor_type;location;lat;lon;timestamp;P1;durP1;ratioP1;P2;durP2;ratioP2
47725;SDS011;33483;48.294;16.388;2022-09-21T00:01:29;4.55;;;1.80;;
47725;SDS011;33483;48.294;16.388;2022-09-21T00:03:58;2.65;;;1.63;;
47725;SDS011;33483;48.294;16.388;2022-09-21T00:06:30;3.05;;;1.98;;
47725;SDS011;33483;48.294;16.388;2022-09-21T00:09:02;2.53;;;1.75;;
47725;SDS011;33483;48.294;16.388;2022-09-21T00:11:31;2.38;;;1.50;;
47725;SDS011;33483;48.294;16.388;2022-09-21T00:14:03;2.25;;;1.52;;
47725;SDS011;33483;48.294;16.388;2022-09-21T00:16:36;2.35;;;1.40;;
47725;SDS011;33483;48.294;16.388;2022-09-21T00:19:07;3.00;;;1.60;;
47725;SDS011;33483;48.294;16.388;2022-09-21T00:21:35;3.08;;;1.70;;
47725;SDS011;33483;48.294;16.388;2022-09-21T00:24:04;2.83;;;1.30;;
47725;SDS011;33483;48.294;16.388;2022-09-21T00:26:32;2.97;;;1.60;;
47725;SDS011;33483;48.294;16.388;2022-09-21T00:29:00;3.88;;;1.50;;
47725;SDS011;33483;48.294;16.388;2022-09-21T00:31:29;2.38;;;1.58;;
47725;SDS011;33483;48.294;16.388;2022-09-21T00:33:58;2.80;;;1.73;;
47725;SDS011;33483;48.294;16.388;2022-09-21T00:36:26;4.25;;;1.70;;
47725;SDS011;33483;48.294;16.388;2022-09-21T00:38:55;4.68;;;2.08;;
47725;SDS011;33483;48.294;16.388;2022-09-21T00:41:24;2.95;;;1.67;;
47725;SDS011;33483;48.294;16.388;2022-09-21T00:44:15;3.17;;;1.73;;
47725;SDS011;33483;48.294;16.388;2022-09-21T00:46:50;4.28;;;1.98;;
47725;SDS011;33483;48.294;16.388;2022-09-21T00:49:21;3.80;;;1.50;;
47725;SDS011;33483;48.294;16.388;2022-09-21T00:51:49;2.72;;;1.73;;
47725;SDS011;33483;48.294;16.388;2022-09-21T00:54:22;3.67;;;1.80;;
47725;SDS011;33483;48.294;16.388;2022-09-21T00:56:54;3.45;;;1.98;;
47725;SDS011;33483;48.294;16.388;2022-09-21T00:59:22;7.88;;;2.60;;
47725;SDS011;33483;48.294;16.388;2022-09-21T01:01:55;2.83;;;1.92;;
47725;SDS011;33483;48.294;16.388;2022-09-21T01:04:24;2.75;;;2.10;;
47725;SDS011;33483;48.294;16.388;2022-09-21T01:06:56;3.53;;;1.95;;
47725;SDS011;33483;48.294;16.388;2022-09-21T01:09:27;3.03;;;1.83;;
47725;SDS011;33483;48.294;16.388;2022-09-21T01:12:02;4.93;;;2.00;;
47725;SDS011;33483;48.294;16.388;2022-09-21T01:22:54;3.37;;;2.07;;
47725;SDS011;33483;48.294;16.388;2022-09-21T01:25:47;4.18;;;1.80;;
47725;SDS011;33483;48.294;16.388;2022-09-21T01:31:31;4.05;;;1.80;;
47725;SDS011;33483;48.294;16.388;2022-09-21T01:37:00;3.90;;;1.90;;
47725;SDS011;33483;48.294;16.388;2022-09-21T01:39:33;3.03;;;1.90;;
47725;SDS011;33483;48.294;16.388;2022-09-21T01:42:04;6.45;;;2.13;;
47725;SDS011;33483;48.294;16.388;2022-09-21T01:44:33;3.33;;;2.08;;
47725;SDS011;33483;48.294;16.388;2022-09-21T01:47:04;4.03;;;1.88;;
47725;SDS011;33483;48.294;16.388;2022-09-21T01:49:47;5.72;;;1.73;;
47725;SDS011;33483;48.294;16.388;2022-09-21T01:55:02;2.67;;;2.10;;
47725;SDS011;33483;48.294;16.388;2022-09-21T01:57:48;4.70;;;1.92;;
47725;SDS011;33483;48.294;16.388;2022-09-21T02:00:19;3.13;;;1.67;;
47725;SDS011;33483;48.294;16.388;2022-09-21T02:03:10;3.40;;;1.98;;
47725;SDS011;33483;48.294;16.388;2022-09-21T02:05:39;3.38;;;1.88;;
47725;SDS011;33483;48.294;16.388;2022-09-21T02:08:07;3.67;;;1.90;;
47725;SDS011;33483;48.294;16.388;2022-09-21T02:10:37;6.25;;;1.92;;
47725;SDS011;33483;48.294;16.388;2022-09-21T02:13:08;7.03;;;1.73;;
47725;SDS011;33483;48.294;16.388;2022-09-21T02:15:40;3.85;;;1.60;;
47725;SDS011;33483;48.294;16.388;2022-09-21T02:18:13;3.15;;;1.77;;
47725;SDS011;33483;48.294;16.388;2022-09-21T02:20:59;3.15;;;1.67;;
47725;SDS011;33483;48.294;16.388;2022-09-21T02:23:36;4.38;;;1.95;;
47725;SDS011;33483;48.294;16.388;2022-09-21T02:26:12;2.72;;;1.65;;
47725;SDS011;33483;48.294;16.388;2022-09-21T02:28:50;6.57;;;1.80;;
47725;SDS011;33483;48.294;16.388;2022-09-21T02:31:31;4.65;;;1.90;;
47725;SDS011;33483;48.294;16.388;2022-09-21T02:34:33;2.92;;;1.58;;
47725;SDS011;33483;48.294;16.388;2022-09-21T02:37:39;3.70;;;1.83;;
47725;SDS011;33483;48.294;16.388;2022-09-21T02:40:03;4.55;;;1.85;;
47725;SDS011;33483;48.294;16.388;2022-09-21T02:42:41;5.35;;;1.70;;
47725;SDS011;33483;48.294;16.388;2022-09-21T02:45:17;4.20;;;1.65;;
47725;SDS011;33483;48.294;16.388;2022-09-21T02:47:49;3.38;;;1.85;;
47725;SDS011;33483;48.294;16.388;2022-09-21T02:50:23;3.67;;;1.88;;
47725;SDS011;33483;48.294;16.388;2022-09-21T02:52:59;5.43;;;2.10;;
47725;SDS011;33483;48.294;16.388;2022-09-21T02:55:30;4.22;;;2.38;;
47725;SDS011;33483;48.294;16.388;2022-09-21T02:58:00;5.97;;;2.10;;
47725;SDS011;33483;48.294;16.388;2022-09-21T03:00:33;5.00;;;1.65;;
47725;SDS011;33483;48.294;16.388;2022-09-21T03:03:12;2.92;;;1.90;;
47725;SDS011;33483;48.294;16.388;2022-09-21T03:05:44;4.70;;;2.00;;
47725;SDS011;33483;48.294;16.388;2022-09-21T03:08:17;4.32;;;1.77;;
47725;SDS011;33483;48.294;16.388;2022-09-21T03:10:44;5.63;;;1.70;;
47725;SDS011;33483;48.294;16.388;2022-09-21T03:13:13;3.97;;;1.95;;
47725;SDS011;33483;48.294;16.388;2022-09-21T03:15:40;2.03;;;1.30;;
47725;SDS011;33483;48.294;16.388;2022-09-21T03:18:08;3.92;;;1.77;;
47725;SDS011;33483;48.294;16.388;2022-09-21T03:20:37;2.63;;;1.83;;
47725;SDS011;33483;48.294;16.388;2022-09-21T03:23:06;3.38;;;1.80;;
47725;SDS011;33483;48.294;16.388;2022-09-21T03:25:35;2.85;;;1.80;;
47725;SDS011;33483;48.294;16.388;2022-09-21T03:28:04;2.72;;;1.75;;
47725;SDS011;33483;48.294;16.388;2022-09-21T03:30:31;4.32;;;1.90;;
47725;SDS011;33483;48.294;16.388;2022-09-21T03:33:01;3.67;;;2.15;;
47725;SDS011;33483;48.294;16.388;2022-09-21T03:35:29;3.10;;;1.60;;
47725;SDS011;33483;48.294;16.388;2022-09-21T03:37:58;3.50;;;1.60;;
47725;SDS011;33483;48.294;16.388;2022-09-21T03:40:26;5.60;;;2.10;;
47725;SDS011;33483;48.294;16.388;2022-09-21T03:42:56;3.15;;;1.60;;
47725;SDS011;33483;48.294;16.388;2022-09-21T03:45:23;2.60;;;1.75;;
47725;SDS011;33483;48.294;16.388;2022-09-21T03:47:53;3.60;;;1.85;;
47725;SDS011;33483;48.294;16.388;2022-09-21T03:50:23;4.00;;;2.13;;
47725;SDS011;33483;48.294;16.388;2022-09-21T03:52:51;6.38;;;2.35;;
47725;SDS011;33483;48.294;16.388;2022-09-21T03:55:18;5.72;;;2.03;;
47725;SDS011;33483;48.294;16.388;2022-09-21T03:57:45;2.95;;;2.00;;
47725;SDS011;33483;48.294;16.388;2022-09-21T04:00:13;3.42;;;1.90;;
47725;SDS011;33483;48.294;16.388;2022-09-21T04:02:40;3.75;;;1.70;;
47725;SDS011;33483;48.294;16.388;2022-09-21T04:05:08;5.15;;;2.03;;
47725;SDS011;33483;48.294;16.388;2022-09-21T04:07:37;3.40;;;1.95;;
47725;SDS011;33483;48.294;16.388;2022-09-21T04:10:05;3.40;;;2.10;;
47725;SDS011;33483;48.294;16.388;2022-09-21T04:12:38;4.05;;;1.80;;
47725;SDS011;33483;48.294;16.388;2022-09-21T04:15:11;5.25;;;1.73;;
47725;SDS011;33483;48.294;16.388;2022-09-21T04:17:39;2.67;;;1.90;;
47725;SDS011;33483;48.294;16.388;2022-09-21T04:20:07;6.03;;;2.58;;
47725;SDS011;33483;48.294;16.388;2022-09-21T04:22:35;6.85;;;2.30;;
47725;SDS011;33483;48.294;16.388;2022-09-21T04:25:08;4.50;;;2.33;;
47725;SDS011;33483;48.294;16.388;2022-09-21T04:27:36;6.57;;;2.40;;
47725;SDS011;33483;48.294;16.388;2022-09-21T04:30:03;6.57;;;2.90;;
47725;SDS011;33483;48.294;16.388;2022-09-21T04:32:31;3.78;;;2.50;;
47725;SDS011;33483;48.294;16.388;2022-09-21T04:34:58;5.15;;;2.75;;
47725;SDS011;33483;48.294;16.388;2022-09-21T04:37:25;4.57;;;3.00;;
47725;SDS011;33483;48.294;16.388;2022-09-21T04:39:52;6.78;;;2.92;;
47725;SDS011;33483;48.294;16.388;2022-09-21T04:42:19;6.15;;;2.72;;
47725;SDS011;33483;48.294;16.388;2022-09-21T04:44:46;5.35;;;2.95;;
47725;SDS011;33483;48.294;16.388;2022-09-21T04:47:13;5.32;;;2.78;;
47725;SDS011;33483;48.294;16.388;2022-09-21T04:49:40;5.07;;;3.20;;
47725;SDS011;33483;48.294;16.388;2022-09-21T04:52:07;4.38;;;2.75;;
47725;SDS011;33483;48.294;16.388;2022-09-21T04:54:34;4.95;;;3.05;;
47725;SDS011;33483;48.294;16.388;2022-09-21T04:57:01;6.10;;;3.28;;
47725;SDS011;33483;48.294;16.388;2022-09-21T04:59:28;4.38;;;3.13;;
47725;SDS011;33483;48.294;16.388;2022-09-21T05:01:55;6.15;;;3.00;;
47725;SDS011;33483;48.294;16.388;2022-09-21T05:04:22;5.22;;;2.97;;
47725;SDS011;33483;48.294;16.388;2022-09-21T05:06:49;6.40;;;3.08;;
47725;SDS011;33483;48.294;16.388;2022-09-21T05:09:16;4.55;;;2.80;;
47725;SDS011;33483;48.294;16.388;2022-09-21T05:12:04;5.10;;;2.88;;
47725;SDS011;33483;48.294;16.388;2022-09-21T05:14:32;5.68;;;3.20;;
47725;SDS011;33483;48.294;16.388;2022-09-21T05:16:59;6.28;;;3.10;;
47725;SDS011;33483;48.294;16.388;2022-09-21T05:19:26;8.07;;;3.17;;
47725;SDS011;33483;48.294;16.388;2022-09-21T05:21:55;4.63;;;3.08;;
47725;SDS011;33483;48.294;16.388;2022-09-21T05:24:22;4.35;;;2.78;;
47725;SDS011;33483;48.294;16.388;2022-09-21T05:26:49;6.28;;;2.88;;
47725;SDS011;33483;48.294;16.388;2022-09-21T05:29:16;5.13;;;2.75;;
47725;SDS011;33483;48.294;16.388;2022-09-21T05:31:47;9.15;;;3.15;;
47725;SDS011;33483;48.294;16.388;2022-09-21T05:40:17;12.90;;;3.13;;
47725;SDS011;33483;48.294;16.388;2022-09-21T05:42:44;6.50;;;2.78;;
47725;SDS011;33483;48.294;16.388;2022-09-21T05:45:12;5.13;;;2.90;;
47725;SDS011;33483;48.294;16.388;2022-09-21T05:47:50;5.60;;;2.85;;
47725;SDS011;33483;48.294;16.388;2022-09-21T05:50:40;4.70;;;2.92;;
47725;SDS011;33483;48.294;16.388;2022-09-21T05:55:55;6.43;;;2.75;;
47725;SDS011;33483;48.294;16.388;2022-09-21T05:58:32;4.57;;;2.80;;
47725;SDS011;33483;48.294;16.388;2022-09-21T06:03:57;6.18;;;2.80;;
47725;SDS011;33483;48.294;16.388;2022-09-21T06:06:25;6.15;;;3.38;;
47725;SDS011;33483;48.294;16.388;2022-09-21T06:08:52;5.13;;;3.15;;
47725;SDS011;33483;48.294;16.388;2022-09-21T06:11:20;8.52;;;2.97;;
47725;SDS011;33483;48.294;16.388;2022-09-21T06:13:47;29.52;;;3.72;;
47725;SDS011;33483;48.294;16.388;2022-09-21T06:16:14;7.40;;;2.90;;
47725;SDS011;33483;48.294;16.388;2022-09-21T06:18:43;8.07;;;2.88;;
47725;SDS011;33483;48.294;16.388;2022-09-21T06:21:13;4.68;;;2.90;;
47725;SDS011;33483;48.294;16.388;2022-09-21T06:23:40;5.60;;;2.83;;
47725;SDS011;33483;48.294;16.388;2022-09-21T06:26:07;4.90;;;3.03;;
47725;SDS011;33483;48.294;16.388;2022-09-21T06:28:34;6.85;;;2.92;;
47725;SDS011;33483;48.294;16.388;2022-09-21T06:31:01;4.35;;;2.97;;
47725;SDS011;33483;48.294;16.388;2022-09-21T06:33:28;4.65;;;2.83;;
47725;SDS011;33483;48.294;16.388;2022-09-21T06:35:56;6.13;;;3.15;;
47725;SDS011;33483;48.294;16.388;2022-09-21T06:38:27;5.95;;;2.80;;
47725;SDS011;33483;48.294;16.388;2022-09-21T06:40:59;11.82;;;3.33;;
47725;SDS011;33483;48.294;16.388;2022-09-21T06:43:31;9.63;;;3.65;;
47725;SDS011;33483;48.294;16.388;2022-09-21T06:46:00;4.97;;;2.90;;
47725;SDS011;33483;48.294;16.388;2022-09-21T06:48:28;7.05;;;3.28;;
47725;SDS011;33483;48.294;16.388;2022-09-21T06:50:57;8.18;;;3.03;;
47725;SDS011;33483;48.294;16.388;2022-09-21T06:53:30;6.80;;;3.35;;
47725;SDS011;33483;48.294;16.388;2022-09-21T06:56:10;4.65;;;3.47;;
47725;SDS011;33483;48.294;16.388;2022-09-21T06:58:37;5.25;;;2.80;;
47725;SDS011;33483;48.294;16.388;2022-09-21T07:01:11;7.82;;;2.90;;
47725;SDS011;33483;48.294;16.388;2022-09-21T07:03:40;4.30;;;2.67;;
47725;SDS011;33483;48.294;16.388;2022-09-21T07:06:08;6.45;;;3.13;;
47725;SDS011;33483;48.294;16.388;2022-09-21T07:08:41;6.50;;;3.17;;
47725;SDS011;33483;48.294;16.388;2022-09-21T07:11:31;4.30;;;2.85;;
47725;SDS011;33483;48.294;16.388;2022-09-21T07:14:01;4.82;;;3.17;;
47725;SDS011;33483;48.294;16.388;2022-09-21T07:16:29;5.32;;;3.10;;
47725;SDS011;33483;48.294;16.388;2022-09-21T07:18:56;7.45;;;3.60;;
47725;SDS011;33483;48.294;16.388;2022-09-21T07:21:36;5.95;;;2.85;;
47725;SDS011;33483;48.294;16.388;2022-09-21T07:24:03;7.32;;;3.60;;
47725;SDS011;33483;48.294;16.388;2022-09-21T07:26:37;5.68;;;3.30;;
47725;SDS011;33483;48.294;16.388;2022-09-21T07:29:04;7.95;;;2.92;;
47725;SDS011;33483;48.294;16.388;2022-09-21T07:31:32;4.72;;;2.70;;
47725;SDS011;33483;48.294;16.388;2022-09-21T07:33:59;4.55;;;2.78;;
47725;SDS011;33483;48.294;16.388;2022-09-21T07:36:27;3.67;;;2.65;;
47725;SDS011;33483;48.294;16.388;2022-09-21T07:38:54;11.05;;;3.13;;
47725;SDS011;33483;48.294;16.388;2022-09-21T07:41:21;4.93;;;2.97;;
47725;SDS011;33483;48.294;16.388;2022-09-21T07:43:48;6.65;;;2.95;;
47725;SDS011;33483;48.294;16.388;2022-09-21T07:46:15;4.25;;;2.90;;
47725;SDS011;33483;48.294;16.388;2022-09-21T07:48:43;4.35;;;3.03;;
47725;SDS011;33483;48.294;16.388;2022-09-21T07:51:11;4.03;;;2.72;;
47725;SDS011;33483;48.294;16.388;2022-09-21T07:53:42;7.30;;;2.80;;
47725;SDS011;33483;48.294;16.388;2022-09-21T07:56:16;4.65;;;2.40;;
47725;SDS011;33483;48.294;16.388;2022-09-21T07:58:43;4.80;;;2.72;;
47725;SDS011;33483;48.294;16.388;2022-09-21T08:01:29;7.80;;;2.83;;
47725;SDS011;33483;48.294;16.388;2022-09-21T08:03:56;5.53;;;2.70;;
47725;SDS011;33483;48.294;16.388;2022-09-21T08:06:25;3.78;;;2.70;;
47725;SDS011;33483;48.294;16.388;2022-09-21T08:08:53;5.32;;;3.05;;
47725;SDS011;33483;48.294;16.388;2022-09-21T08:11:24;4.88;;;2.83;;
47725;SDS011;33483;48.294;16.388;2022-09-21T08:13:53;3.78;;;2.78;;
47725;SDS011;33483;48.294;16.388;2022-09-21T08:16:23;3.72;;;2.70;;
47725;SDS011;33483;48.294;16.388;2022-09-21T08:18:51;4.53;;;2.53;;
47725;SDS011;33483;48.294;16.388;2022-09-21T08:21:18;4.40;;;2.47;;
47725;SDS011;33483;48.294;16.388;2022-09-21T08:23:48;4.07;;;2.47;;
47725;SDS011;33483;48.294;16.388;2022-09-21T08:26:16;3.88;;;2.38;;
47725;SDS011;33483;48.294;16.388;2022-09-21T08:28:46;7.60;;;2.70;;
47725;SDS011;33483;48.294;16.388;2022-09-21T08:31:18;3.90;;;2.55;;
47725;SDS011;33483;48.294;16.388;2022-09-21T08:33:47;3.88;;;2.83;;
47725;SDS011;33483;48.294;16.388;2022-09-21T08:36:16;3.40;;;2.60;;
47725;SDS011;33483;48.294;16.388;2022-09-21T08:38:44;4.25;;;2.38;;
47725;SDS011;33483;48.294;16.388;2022-09-21T08:41:13;4.78;;;2.35;;
47725;SDS011;33483;48.294;16.388;2022-09-21T08:43:50;4.88;;;2.72;;
47725;SDS011;33483;48.294;16.388;2022-09-21T08:46:23;5.60;;;2.60;;
47725;SDS011;33483;48.294;16.388;2022-09-21T08:49:02;4.75;;;2.35;;
47725;SDS011;33483;48.294;16.388;2022-09-21T08:51:36;8.18;;;2.75;;
47725;SDS011;33483;48.294;16.388;2022-09-21T08:57:17;6.30;;;2.60;;
47725;SDS011;33483;48.294;16.388;2022-09-21T08:59:46;3.78;;;2.60;;
47725;SDS011;33483;48.294;16.388;2022-09-21T09:21:57;3.85;;;2.80;;
47725;SDS011;33483;48.294;16.388;2022-09-21T09:27:11;6.75;;;2.70;;
47725;SDS011;33483;48.294;16.388;2022-09-21T09:29:53;5.70;;;2.85;;
47725;SDS011;33483;48.294;16.388;2022-09-21T09:32:37;6.30;;;2.85;;
47725;SDS011;33483;48.294;16.388;2022-09-21T09:37:50;5.30;;;2.95;;
47725;SDS011;33483;48.294;16.388;2022-09-21T09:46:28;5.65;;;2.60;;
47725;SDS011;33483;48.294;16.388;2022-09-21T09:52:21;3.38;;;2.20;;
47725;SDS011;33483;48.294;16.388;2022-09-21T09:54:51;4.78;;;2.85;;
47725;SDS011;33483;48.294;16.388;2022-09-21T09:57:28;6.55;;;2.88;;
47725;SDS011;33483;48.294;16.388;2022-09-21T10:00:04;5.15;;;2.72;;
47725;SDS011;33483;48.294;16.388;2022-09-21T10:02:45;4.65;;;2.60;;
47725;SDS011;33483;48.294;16.388;2022-09-21T10:05:19;4.63;;;2.58;;
47725;SDS011;33483;48.294;16.388;2022-09-21T10:07:47;5.57;;;2.92;;
47725;SDS011;33483;48.294;16.388;2022-09-21T10:12:48;3.65;;;2.55;;
47725;SDS011;33483;48.294;16.388;2022-09-21T10:15:18;3.72;;;2.30;;
47725;SDS011;33483;48.294;16.388;2022-09-21T10:17:47;3.67;;;2.50;;
47725;SDS011;33483;48.294;16.388;2022-09-21T10:20:16;5.53;;;2.15;;
47725;SDS011;33483;48.294;16.388;2022-09-21T10:22:47;6.45;;;2.10;;
47725;SDS011;33483;48.294;16.388;2022-09-21T10:25:21;2.40;;;2.00;;
47725;SDS011;33483;48.294;16.388;2022-09-21T10:27:52;2.83;;;2.20;;
47725;SDS011;33483;48.294;16.388;2022-09-21T10:30:33;3.72;;;2.10;;
47725;SDS011;33483;48.294;16.388;2022-09-21T10:33:02;2.33;;;1.90;;
47725;SDS011;33483;48.294;16.388;2022-09-21T10:35:29;3.22;;;1.85;;
47725;SDS011;33483;48.294;16.388;2022-09-21T10:38:09;4.00;;;1.98;;
47725;SDS011;33483;48.294;16.388;2022-09-21T10:40:48;2.85;;;1.50;;
47725;SDS011;33483;48.294;16.388;2022-09-21T10:43:50;2.25;;;1.48;;
47725;SDS011;33483;48.294;16.388;2022-09-21T10:46:10;2.53;;;1.58;;
47725;SDS011;33483;48.294;16.388;2022-09-21T10:48:37;2.38;;;1.30;;
47725;SDS011;33483;48.294;16.388;2022-09-21T10:51:04;1.55;;;1.10;;
47725;SDS011;33483;48.294;16.388;2022-09-21T10:53:33;1.70;;;1.08;;
47725;SDS011;33483;48.294;16.388;2022-09-21T11:01:48;4.03;;;1.10;;
47725;SDS011;33483;48.294;16.388;2022-09-21T11:04:23;1.48;;;1.20;;
47725;SDS011;33483;48.294;16.388;2022-09-21T11:16:03;1.55;;;0.88;;
47725;SDS011;33483;48.294;16.388;2022-09-21T11:29:25;1.83;;;1.10;;
47725;SDS011;33483;48.294;16.388;2022-09-21T11:37:59;1.52;;;0.85;;
47725;SDS011;33483;48.294;16.388;2022-09-21T11:40:38;1.00;;;0.80;;
47725;SDS011;33483;48.294;16.388;2022-09-21T12:06:39;2.30;;;1.35;;
47725;SDS011;33483;48.294;16.388;2022-09-21T12:26:09;3.80;;;1.40;;
47725;SDS011;33483;48.294;16.388;2022-09-21T12:28:43;2.97;;;1.17;;
47725;SDS011;33483;48.294;16.388;2022-09-21T12:31:18;1.67;;;1.02;;
47725;SDS011;33483;48.294;16.388;2022-09-21T12:33:53;3.63;;;1.30;;
47725;SDS011;33483;48.294;16.388;2022-09-21T12:36:38;7.80;;;2.03;;
47725;SDS011;33483;48.294;16.388;2022-09-21T12:39:22;5.55;;;1.60;;
47725;SDS011;33483;48.294;16.388;2022-09-21T12:44:59;2.88;;;1.58;;
47725;SDS011;33483;48.294;16.388;2022-09-21T12:53:14;3.83;;;1.45;;
47725;SDS011;33483;48.294;16.388;2022-09-21T12:55:55;7.00;;;1.70;;
47725;SDS011;33483;48.294;16.388;2022-09-21T13:02:02;1.65;;;1.30;;
47725;SDS011;33483;48.294;16.388;2022-09-21T13:04:56;4.35;;;1.48;;
47725;SDS011;33483;48.294;16.388;2022-09-21T13:10:15;2.80;;;1.60;;
47725;SDS011;33483;48.294;16.388;2022-09-21T13:18:03;2.15;;;1.48;;
47725;SDS011;33483;48.294;16.388;2022-09-21T13:20:32;6.75;;;1.55;;
47725;SDS011;33483;48.294;16.388;2022-09-21T13:23:02;2.70;;;1.65;;
47725;SDS011;33483;48.294;16.388;2022-09-21T13:25:30;3.67;;;1.58;;
47725;SDS011;33483;48.294;16.388;2022-09-21T13:47:46;4.35;;;1.77;;
47725;SDS011;33483;48.294;16.388;2022-09-21T13:50:23;10.15;;;2.42;;
47725;SDS011;33483;48.294;16.388;2022-09-21T13:53:02;10.48;;;2.30;;
47725;SDS011;33483;48.294;16.388;2022-09-21T13:55:33;3.67;;;2.00;;
47725;SDS011;33483;48.294;16.388;2022-09-21T14:00:56;7.38;;;1.67;;
47725;SDS011;33483;48.294;16.388;2022-09-21T14:03:27;4.38;;;1.55;;
47725;SDS011;33483;48.294;16.388;2022-09-21T14:06:02;7.28;;;1.95;;
47725;SDS011;33483;48.294;16.388;2022-09-21T14:11:27;3.85;;;1.90;;
47725;SDS011;33483;48.294;16.388;2022-09-21T14:24:46;5.82;;;1.85;;
47725;SDS011;33483;48.294;16.388;2022-09-21T14:27:18;2.75;;;1.90;;
47725;SDS011;33483;48.294;16.388;2022-09-21T14:30:19;2.50;;;2.03;;
47725;SDS011;33483;48.294;16.388;2022-09-21T14:35:32;2.80;;;1.83;;
47725;SDS011;33483;48.294;16.388;2022-09-21T14:40:57;4.18;;;1.88;;
47725;SDS011;33483;48.294;16.388;2022-09-21T14:43:31;2.85;;;1.73;;
47725;SDS011;33483;48.294;16.388;2022-09-21T14:57:41;5.18;;;1.83;;
47725;SDS011;33483;48.294;16.388;2022-09-21T15:05:55;3.05;;;1.70;;
47725;SDS011;33483;48.294;16.388;2022-09-21T15:11:36;3.88;;;1.65;;
47725;SDS011;33483;48.294;16.388;2022-09-21T15:16:48;2.05;;;1.48;;
47725;SDS011;33483;48.294;16.388;2022-09-21T15:21:45;2.13;;;1.63;;
47725;SDS011;33483;48.294;16.388;2022-09-21T15:24:17;4.00;;;1.65;;
47725;SDS011;33483;48.294;16.388;2022-09-21T15:26:48;2.50;;;1.60;;
47725;SDS011;33483;48.294;16.388;2022-09-21T15:29:25;1.88;;;1.45;;
47725;SDS011;33483;48.294;16.388;2022-09-21T15:31:59;1.88;;;1.40;;
47725;SDS011;33483;48.294;16.388;2022-09-21T15:34:27;3.90;;;1.20;;
47725;SDS011;33483;48.294;16.388;2022-09-21T15:37:04;2.33;;;1.50;;
47725;SDS011;33483;48.294;16.388;2022-09-21T15:39:44;1.65;;;1.25;;
47725;SDS011;33483;48.294;16.388;2022-09-21T15:44:45;3.40;;;1.33;;
47725;SDS011;33483;48.294;16.388;2022-09-21T15:47:17;4.57;;;1.35;;
47725;SDS011;33483;48.294;16.388;2022-09-21T15:49:47;2.95;;;1.65;;
47725;SDS011;33483;48.294;16.388;2022-09-21T15:52:18;8.57;;;1.88;;
47725;SDS011;33483;48.294;16.388;2022-09-21T15:55:35;4.00;;;1.70;;
47725;SDS011;33483;48.294;16.388;2022-09-21T15:57:41;2.95;;;1.67;;
47725;SDS011;33483;48.294;16.388;2022-09-21T16:02:49;3.88;;;1.60;;
47725;SDS011;33483;48.294;16.388;2022-09-21T16:05:21;5.28;;;1.60;;
47725;SDS011;33483;48.294;16.388;2022-09-21T16:08:02;3.35;;;1.80;;
47725;SDS011;33483;48.294;16.388;2022-09-21T16:10:43;4.45;;;1.63;;
47725;SDS011;33483;48.294;16.388;2022-09-21T16:13:11;6.80;;;2.33;;
47725;SDS011;33483;48.294;16.388;2022-09-21T16:16:10;1.95;;;1.38;;
47725;SDS011;33483;48.294;16.388;2022-09-21T16:21:16;1.83;;;1.42;;
47725;SDS011;33483;48.294;16.388;2022-09-21T16:23:48;3.65;;;2.08;;
47725;SDS011;33483;48.294;16.388;2022-09-21T16:26:26;3.15;;;1.83;;
47725;SDS011;33483;48.294;16.388;2022-09-21T16:31:34;2.92;;;1.85;;
47725;SDS011;33483;48.294;16.388;2022-09-21T16:39:56;2.10;;;1.30;;
47725;SDS011;33483;48.294;16.388;2022-09-21T16:42:25;1.88;;;1.40;;
47725;SDS011;33483;48.294;16.388;2022-09-21T16:44:58;4.97;;;1.70;;
47725;SDS011;33483;48.294;16.388;2022-09-21T16:47:27;2.72;;;1.65;;
47725;SDS011;33483;48.294;16.388;2022-09-21T16:49:56;2.15;;;1.58;;
47725;SDS011;33483;48.294;16.388;2022-09-21T16:52:28;2.25;;;1.50;;
47725;SDS011;33483;48.294;16.388;2022-09-21T16:54:57;2.20;;;1.45;;
47725;SDS011;33483;48.294;16.388;2022-09-21T16:57:24;2.30;;;1.55;;
47725;SDS011;33483;48.294;16.388;2022-09-21T16:59:52;3.55;;;1.50;;
47725;SDS011;33483;48.294;16.388;2022-09-21T17:02:19;3.35;;;1.70;;
47725;SDS011;33483;48.294;16.388;2022-09-21T17:04:46;2.03;;;1.65;;
47725;SDS011;33483;48.294;16.388;2022-09-21T17:07:14;5.80;;;1.60;;
47725;SDS011;33483;48.294;16.388;2022-09-21T17:09:43;1.95;;;1.55;;
47725;SDS011;33483;48.294;16.388;2022-09-21T17:12:14;2.65;;;1.58;;
47725;SDS011;33483;48.294;16.388;2022-09-21T17:14:44;1.80;;;1.27;;
47725;SDS011;33483;48.294;16.388;2022-09-21T17:17:17;2.17;;;1.50;;
47725;SDS011;33483;48.294;16.388;2022-09-21T17:19:47;4.85;;;1.10;;
47725;SDS011;33483;48.294;16.388;2022-09-21T17:22:15;1.85;;;1.30;;
47725;SDS011;33483;48.294;16.388;2022-09-21T17:24:44;2.28;;;1.27;;
47725;SDS011;33483;48.294;16.388;2022-09-21T17:27:18;5.00;;;1.63;;
47725;SDS011;33483;48.294;16.388;2022-09-21T17:29:48;2.78;;;1.45;;
47725;SDS011;33483;48.294;16.388;2022-09-21T17:32:16;3.45;;;1.95;;
47725;SDS011;33483;48.294;16.388;2022-09-21T17:34:50;3.63;;;1.90;;
47725;SDS011;33483;48.294;16.388;2022-09-21T17:37:22;3.03;;;1.77;;
47725;SDS011;33483;48.294;16.388;2022-09-21T17:39:50;4.97;;;1.65;;
47725;SDS011;33483;48.294;16.388;2022-09-21T17:42:21;3.00;;;1.70;;
47725;SDS011;33483;48.294;16.388;2022-09-21T17:47:39;2.20;;;1.40;;
47725;SDS011;33483;48.294;16.388;2022-09-21T17:52:39;2.55;;;2.20;;
47725;SDS011;33483;48.294;16.388;2022-09-21T17:55:27;2.53;;;1.73;;
47725;SDS011;33483;48.294;16.388;2022-09-21T18:03:14;4.18;;;2.60;;
47725;SDS011;33483;48.294;16.388;2022-09-21T18:05:47;4.90;;;2.42;;
47725;SDS011;33483;48.294;16.388;2022-09-21T18:08:24;8.20;;;2.38;;
47725;SDS011;33483;48.294;16.388;2022-09-21T18:17:10;6.30;;;2.47;;
47725;SDS011;33483;48.294;16.388;2022-09-21T18:25:12;6.22;;;2.42;;
47725;SDS011;33483;48.294;16.388;2022-09-21T18:27:44;3.58;;;2.35;;
47725;SDS011;33483;48.294;16.388;2022-09-21T18:30:14;2.85;;;2.00;;
47725;SDS011;33483;48.294;16.388;2022-09-21T18:38:15;5.05;;;2.35;;
47725;SDS011;33483;48.294;16.388;2022-09-21T18:41:00;3.58;;;2.38;;
47725;SDS011;33483;48.294;16.388;2022-09-21T18:46:10;7.22;;;3.08;;
47725;SDS011;33483;48.294;16.388;2022-09-21T18:54:16;7.03;;;3.08;;
47725;SDS011;33483;48.294;16.388;2022-09-21T18:56:54;6.82;;;2.55;;
47725;SDS011;33483;48.294;16.388;2022-09-21T18:59:24;3.80;;;2.25;;
47725;SDS011;33483;48.294;16.388;2022-09-21T19:01:57;7.95;;;2.05;;
47725;SDS011;33483;48.294;16.388;2022-09-21T19:04:25;2.45;;;1.85;;
47725;SDS011;33483;48.294;16.388;2022-09-21T19:09:37;2.80;;;1.80;;
47725;SDS011;33483;48.294;16.388;2022-09-21T19:12:13;3.20;;;2.10;;
47725;SDS011;33483;48.294;16.388;2022-09-21T19:21:28;7.53;;;2.42;;
47725;SDS011;33483;48.294;16.388;2022-09-21T19:24:26;5.00;;;2.28;;
47725;SDS011;33483;48.294;16.388;2022-09-21T19:30:07;2.92;;;2.28;;
47725;SDS011;33483;48.294;16.388;2022-09-21T19:37:47;5.85;;;2.30;;
47725;SDS011;33483;48.294;16.388;2022-09-21T19:40:16;5.80;;;3.60;;
47725;SDS011;33483;48.294;16.388;2022-09-21T19:48:16;4.25;;;2.85;;
47725;SDS011;33483;48.294;16.388;2022-09-21T19:50:51;5.68;;;2.83;;
47725;SDS011;33483;48.294;16.388;2022-09-21T19:53:29;6.47;;;2.55;;
47725;SDS011;33483;48.294;16.388;2022-09-21T19:56:16;3.92;;;2.50;;
47725;SDS011;33483;48.294;16.388;2022-09-21T19:59:07;6.80;;;2.30;;
47725;SDS011;33483;48.294;16.388;2022-09-21T20:01:54;3.92;;;2.60;;
47725;SDS011;33483;48.294;16.388;2022-09-21T20:04:31;4.60;;;2.60;;
47725;SDS011;33483;48.294;16.388;2022-09-21T20:07:07;4.55;;;2.97;;